Terminal Aerodrome Forecast
Issued by NWS

Home | Current Version | Previous Version | Graphics & Text | Print | Product List | Glossary On
Versions: 1 2 3 4 5 6 7 8 9 10 11 12 13 14 15 16
000
FTUS43 KABR 021131
TAFATY
TAF
KATY 021131Z 0212/0312 17014KT P6SM BKN250
     FM021400 18015G24KT P6SM VCSH FEW015 BKN100 OVC150
     FM030200 17013KT P6SM VCTS SCT050 BKN080CB OVC120
     FM030600 18015KT P6SM OVC150=

USA.gov is the U.S. government's official web portal to all federal, state and local government web resources and services.